MSC Maeva — H9TF — position and weather

sailwx.info

Track history (hours):
 
Tides and Currents Weather Stations Pressure Air Temp Water Temp Dewpoint Dewpoint Depression Visibility Wind Speed Wind Dir Waves Ship Positions

MSC Maeva

Last reported at 2017-Oct-09 02:13 UTC. Time now 2017-Oct-18 05:44 UTC.
Position N 36°11' E 014°42'.
Warning: this ship's position is 9 days out of date.

Type: Ship (hazmat cat A). MMSI: 371851000.

Date/timePositionNaut miles runAvg speedWind from/ knotsBaromVisibWave heightAir tempDewpointWater temp
2017-Oct-09 02:13N 36°11' E 014°42'520.8
2017-Oct-09 02:00N 36°12' E 014°36'1121.0
2017-Oct-09 01:29N 36°16' E 014°24'1020.9
2017-Oct-09 01:01N 36°19' E 014°12'1120.9
2017-Oct-09 00:30N 36°23' E 013°60'1021.0
2017-Oct-09 00:00N 36°27' E 013°48'61619.8
2017-Oct-07 16:52N 41°18' E 002°10'14 0.4
2017-Oct-06 08:58N 41°05' E 002°04'1017.2
2017-Oct-06 08:24N 40°57' E 001°58'15817.7
2017-Oct-05 23:27N 38°36' E 000°24'818.2
2017-Oct-05 23:00N 38°29' E 000°20'2717.9
2017-Oct-05 21:30N 38°08' W 000°02'918.0
2017-Oct-05 21:00N 38°00' W 000°08'1918.0
2017-Oct-05 19:58N 37°45' W 000°21'918.4
2017-Oct-05 19:30N 37°38' W 000°27'918.3
2017-Oct-05 19:00N 37°31' W 000°34'918.2
2017-Oct-05 18:30N 37°25' W 000°43'918.0
2017-Oct-05 18:00N 37°18' W 000°51'917.9
2017-Oct-05 17:30N 37°13' W 000°60'917.9
2017-Oct-05 17:00N 37°06' W 001°08'37717.7
2017-Oct-04 19:37N 35°59' W 008°51'219.4
2017-Oct-04 19:30N 35°60' W 008°53'1020.1
2017-Oct-04 19:00N 35°60' W 009°06'1019.6
2017-Oct-04 18:30N 36°00' W 009°18'1019.4
2017-Oct-04 18:00N 36°01' W 009°30'1019.2
2017-Oct-04 17:30N 36°01' W 009°42'1018.9
2017-Oct-04 16:59N 36°02' W 009°54'1118.5
2017-Oct-04 16:23N 36°02' W 010°08'718.5
2017-Oct-04 16:00N 36°03' W 010°16'2618.5
2017-Oct-04 14:37N 36°05' W 010°48'1218.6
2017-Oct-04 13:57N 36°06' W 011°04'918.6
2017-Oct-04 13:27N 36°06' W 011°15'1118.7
2017-Oct-04 12:51N 36°07' W 011°29'618.8
2017-Oct-04 12:30N 36°08' W 011°37'918.7
2017-Oct-04 12:00N 36°08' W 011°48'918.5
2017-Oct-04 11:30N 36°08' W 011°60'918.7
2017-Oct-04 11:00N 36°09' W 012°11'918.6
2017-Oct-04 10:30N 36°09' W 012°23'918.4
2017-Oct-04 10:00N 36°10' W 012°34'918.4
2017-Oct-04 09:30N 36°11' W 012°46'918.8
2017-Oct-04 09:00N 36°11' W 012°57'1018.8
2017-Oct-04 08:29N 36°12' W 013°09'1118.9
2017-Oct-04 07:54N 36°13' W 013°23'819.5
2017-Oct-04 07:30N 36°13' W 013°33'1019.0
2017-Oct-04 06:59N 36°14' W 013°45'918.8
2017-Oct-04 06:30N 36°15' W 013°56'918.9
2017-Oct-04 06:00N 36°15' W 014°08'1019.0
2017-Oct-04 05:28N 36°16' W 014°20'1018.8
2017-Oct-04 04:57N 36°17' W 014°32'5318.8
2017-Oct-04 02:09N 36°20' W 015°38'319.1
2017-Oct-04 02:00N 36°20' W 015°41'918.9
2017-Oct-04 01:30N 36°21' W 015°53'3518.8
2017-Oct-03 23:39N 36°23' W 016°36'718.6
2017-Oct-03 23:18N 36°23' W 016°44'5719.1
2017-Oct-03 20:19N 36°26' W 017°55'919.4
2017-Oct-03 19:51N 36°27' W 018°06'719.6
2017-Oct-03 19:30N 36°27' W 018°14'1019.7
2017-Oct-03 18:59N 36°27' W 018°27'2219.7
2017-Oct-03 17:53N 36°28' W 018°54'719.6
2017-Oct-03 17:30N 36°28' W 019°03'3019.6
2017-Oct-03 15:57N 36°28' W 019°41'1219.6
2017-Oct-03 15:20N 36°27' W 019°56'6219.8
2017-Oct-03 12:13N 36°26' W 021°13'3820.1
2017-Oct-03 10:22N 36°26' W 021°59'720.1
2017-Oct-03 10:00N 36°26' W 022°08'3519.8
2017-Oct-03 08:14N 36°26' W 022°52'418.7
2017-Oct-03 08:00N 36°26' W 022°57'918.6
2017-Oct-03 07:30N 36°25' W 023°09'918.6
2017-Oct-03 07:00N 36°24' W 023°20'918.6
2017-Oct-03 06:30N 36°24' W 023°32'918.7
2017-Oct-03 06:00N 36°23' W 023°43'918.8
2017-Oct-03 05:30N 36°23' W 023°55'1019.0
2017-Oct-03 04:59N 36°22' W 024°07'919.1
2017-Oct-03 04:30N 36°21' W 024°19'918.9
2017-Oct-03 04:00N 36°21' W 024°30'918.8
2017-Oct-03 03:30N 36°20' W 024°42'918.9
2017-Oct-03 03:00N 36°20' W 024°54'918.8
2017-Oct-03 02:30N 36°19' W 025°05'918.8
2017-Oct-03 02:00N 36°18' W 025°17'918.8
2017-Oct-03 01:30N 36°18' W 025°29'918.8
2017-Oct-03 01:00N 36°17' W 025°40'1019.1
2017-Oct-03 00:30N 36°17' W 025°52'1019.2
2017-Oct-03 00:00N 36°16' W 026°04'1019.2
2017-Oct-02 23:30N 36°15' W 026°16'1019.5
2017-Oct-02 23:00N 36°14' W 026°28'1119.3
2017-Oct-02 22:27N 36°13' W 026°41'2219.1
2017-Oct-02 21:16N 36°11' W 027°09'  
Track history (hours):
 
Tides and Currents Weather Stations Pressure Air Temp Water Temp Dewpoint Dewpoint Depression Visibility Wind Speed Wind Dir Waves Ship Positions

MSC Maeva

Last reported at 2017-Oct-09 02:13 UTC. Time now 2017-Oct-18 05:44 UTC.
Position N 36°11' E 014°42'.
Warning: this ship's position is 9 days out of date.

Type: Ship (hazmat cat A). MMSI: 371851000.

Date/timePositionNaut miles runAvg speedWind from/ knotsBaromVisibWave heightAir tempDewpointWater temp
2017-Oct-09 02:13N 36°11' E 014°42'520.8
2017-Oct-09 02:00N 36°12' E 014°36'1121.0
2017-Oct-09 01:29N 36°16' E 014°24'1020.9
2017-Oct-09 01:01N 36°19' E 014°12'1120.9
2017-Oct-09 00:30N 36°23' E 013°60'1021.0
2017-Oct-09 00:00N 36°27' E 013°48'61619.8
2017-Oct-07 16:52N 41°18' E 002°10'14 0.4
2017-Oct-06 08:58N 41°05' E 002°04'1017.2
2017-Oct-06 08:24N 40°57' E 001°58'15817.7
2017-Oct-05 23:27N 38°36' E 000°24'818.2
2017-Oct-05 23:00N 38°29' E 000°20'2717.9
2017-Oct-05 21:30N 38°08' W 000°02'918.0
2017-Oct-05 21:00N 38°00' W 000°08'1918.0
2017-Oct-05 19:58N 37°45' W 000°21'918.4
2017-Oct-05 19:30N 37°38' W 000°27'918.3
2017-Oct-05 19:00N 37°31' W 000°34'918.2
2017-Oct-05 18:30N 37°25' W 000°43'918.0
2017-Oct-05 18:00N 37°18' W 000°51'917.9
2017-Oct-05 17:30N 37°13' W 000°60'917.9
2017-Oct-05 17:00N 37°06' W 001°08'37717.7
2017-Oct-04 19:37N 35°59' W 008°51'219.4
2017-Oct-04 19:30N 35°60' W 008°53'1020.1
2017-Oct-04 19:00N 35°60' W 009°06'1019.6
2017-Oct-04 18:30N 36°00' W 009°18'1019.4
2017-Oct-04 18:00N 36°01' W 009°30'1019.2
2017-Oct-04 17:30N 36°01' W 009°42'1018.9
2017-Oct-04 16:59N 36°02' W 009°54'1118.5
2017-Oct-04 16:23N 36°02' W 010°08'718.5
2017-Oct-04 16:00N 36°03' W 010°16'2618.5
2017-Oct-04 14:37N 36°05' W 010°48'1218.6
2017-Oct-04 13:57N 36°06' W 011°04'918.6
2017-Oct-04 13:27N 36°06' W 011°15'1118.7
2017-Oct-04 12:51N 36°07' W 011°29'618.8
2017-Oct-04 12:30N 36°08' W 011°37'918.7
2017-Oct-04 12:00N 36°08' W 011°48'918.5
2017-Oct-04 11:30N 36°08' W 011°60'918.7
2017-Oct-04 11:00N 36°09' W 012°11'918.6
2017-Oct-04 10:30N 36°09' W 012°23'918.4
2017-Oct-04 10:00N 36°10' W 012°34'918.4
2017-Oct-04 09:30N 36°11' W 012°46'918.8
2017-Oct-04 09:00N 36°11' W 012°57'1018.8
2017-Oct-04 08:29N 36°12' W 013°09'1118.9
2017-Oct-04 07:54N 36°13' W 013°23'819.5
2017-Oct-04 07:30N 36°13' W 013°33'1019.0
2017-Oct-04 06:59N 36°14' W 013°45'918.8
2017-Oct-04 06:30N 36°15' W 013°56'918.9
2017-Oct-04 06:00N 36°15' W 014°08'1019.0
2017-Oct-04 05:28N 36°16' W 014°20'1018.8
2017-Oct-04 04:57N 36°17' W 014°32'5318.8
2017-Oct-04 02:09N 36°20' W 015°38'319.1
2017-Oct-04 02:00N 36°20' W 015°41'918.9
2017-Oct-04 01:30N 36°21' W 015°53'3518.8
2017-Oct-03 23:39N 36°23' W 016°36'718.6
2017-Oct-03 23:18N 36°23' W 016°44'5719.1
2017-Oct-03 20:19N 36°26' W 017°55'919.4
2017-Oct-03 19:51N 36°27' W 018°06'719.6
2017-Oct-03 19:30N 36°27' W 018°14'1019.7
2017-Oct-03 18:59N 36°27' W 018°27'2219.7
2017-Oct-03 17:53N 36°28' W 018°54'719.6
2017-Oct-03 17:30N 36°28' W 019°03'3019.6
2017-Oct-03 15:57N 36°28' W 019°41'1219.6
2017-Oct-03 15:20N 36°27' W 019°56'6219.8
2017-Oct-03 12:13N 36°26' W 021°13'3820.1
2017-Oct-03 10:22N 36°26' W 021°59'720.1
2017-Oct-03 10:00N 36°26' W 022°08'3519.8
2017-Oct-03 08:14N 36°26' W 022°52'418.7
2017-Oct-03 08:00N 36°26' W 022°57'918.6
2017-Oct-03 07:30N 36°25' W 023°09'918.6
2017-Oct-03 07:00N 36°24' W 023°20'918.6
2017-Oct-03 06:30N 36°24' W 023°32'918.7
2017-Oct-03 06:00N 36°23' W 023°43'918.8
2017-Oct-03 05:30N 36°23' W 023°55'1019.0
2017-Oct-03 04:59N 36°22' W 024°07'919.1
2017-Oct-03 04:30N 36°21' W 024°19'918.9
2017-Oct-03 04:00N 36°21' W 024°30'918.8
2017-Oct-03 03:30N 36°20' W 024°42'918.9
2017-Oct-03 03:00N 36°20' W 024°54'918.8
2017-Oct-03 02:30N 36°19' W 025°05'918.8
2017-Oct-03 02:00N 36°18' W 025°17'918.8
2017-Oct-03 01:30N 36°18' W 025°29'918.8
2017-Oct-03 01:00N 36°17' W 025°40'1019.1
2017-Oct-03 00:30N 36°17' W 025°52'1019.2
2017-Oct-03 00:00N 36°16' W 026°04'1019.2
2017-Oct-02 23:30N 36°15' W 026°16'1019.5
2017-Oct-02 23:00N 36°14' W 026°28'1119.3
2017-Oct-02 22:27N 36°13' W 026°41'2219.1
2017-Oct-02 21:16N 36°11' W 027°09'  

Dump ship's entire track history